createdAt,value
2023-03-11T00:01:43.722Z,25.52
2023-03-11T00:03:43.607Z,25.47
2023-03-11T00:05:43.826Z,25.54
2023-03-11T00:07:43.672Z,25.45
2023-03-11T00:09:43.651Z,25.52
2023-03-11T00:11:43.558Z,25.52
2023-03-11T00:13:43.631Z,25.50
2023-03-11T00:15:43.676Z,25.53
2023-03-11T00:17:43.607Z,25.40
2023-03-11T00:19:43.684Z,25.52
2023-03-11T00:21:43.603Z,25.49
2023-03-11T00:23:43.704Z,25.46
2023-03-11T00:25:43.637Z,25.54
2023-03-11T00:27:43.690Z,25.50
2023-03-11T00:29:43.682Z,25.52
2023-03-11T00:31:43.687Z,25.57
2023-03-11T00:33:43.680Z,25.56
2023-03-11T00:35:43.714Z,25.52
2023-03-11T00:37:43.787Z,25.58
2023-03-11T00:39:43.731Z,25.50
2023-03-11T00:41:43.725Z,25.52
2023-03-11T00:43:43.731Z,25.52
2023-03-11T00:45:43.713Z,25.50
2023-03-11T00:47:43.719Z,25.52
2023-03-11T00:49:43.692Z,25.61
2023-03-11T00:51:43.649Z,25.50
2023-03-11T00:53:43.718Z,25.52
2023-03-11T00:55:43.742Z,25.42
2023-03-11T00:57:43.196Z,25.51
2023-03-11T00:59:43.741Z,25.52
2023-03-11T01:01:43.756Z,25.51
2023-03-11T01:03:43.670Z,25.52
2023-03-11T01:05:43.736Z,25.47
2023-03-11T01:07:43.732Z,25.54
2023-03-11T01:09:43.725Z,25.49
2023-03-11T01:11:43.679Z,25.51
2023-03-11T01:13:43.713Z,25.54
2023-03-11T01:15:43.840Z,25.54
2023-03-11T01:17:43.773Z,25.53
2023-03-11T01:19:43.744Z,25.64
2023-03-11T01:21:43.776Z,25.52
2023-03-11T01:23:43.793Z,25.63
2023-03-11T01:25:43.731Z,25.52
2023-03-11T01:27:43.732Z,25.54
2023-03-11T01:29:43.720Z,25.60
2023-03-11T01:31:43.709Z,25.56
2023-03-11T01:33:43.713Z,25.63
2023-03-11T01:35:43.776Z,25.54
2023-03-11T01:37:43.761Z,25.63
2023-03-11T01:39:43.766Z,25.54
2023-03-11T01:41:43.671Z,25.56
2023-03-11T01:43:43.778Z,25.56
2023-03-11T01:45:43.774Z,25.51
2023-03-11T01:47:43.791Z,25.57
2023-03-11T01:49:43.784Z,25.54
2023-03-11T01:51:43.767Z,25.53
2023-03-11T01:53:43.777Z,25.52
2023-03-11T01:55:43.789Z,25.52
2023-03-11T01:57:43.776Z,25.54
2023-03-11T01:59:43.756Z,25.55
2023-03-11T02:01:43.847Z,25.53
2023-03-11T02:03:43.794Z,25.54
2023-03-11T02:05:43.785Z,25.52
2023-03-11T02:07:43.723Z,25.52
2023-03-11T02:09:43.754Z,25.54
2023-03-11T02:11:43.828Z,25.58
2023-03-11T02:13:43.812Z,25.52
2023-03-11T02:15:43.763Z,25.52
2023-03-11T02:17:43.804Z,25.52
2023-03-11T02:19:43.830Z,25.52
2023-03-11T02:21:43.778Z,25.55
2023-03-11T02:23:43.764Z,25.54
2023-03-11T02:25:43.735Z,25.52
2023-03-11T02:27:43.808Z,25.52
2023-03-11T02:29:43.818Z,25.58
2023-03-11T02:31:43.824Z,25.54
2023-03-11T02:33:43.831Z,25.60
2023-03-11T02:35:43.778Z,25.52
2023-03-11T02:37:43.876Z,25.53
2023-03-11T02:39:43.854Z,25.54
2023-03-11T02:41:43.929Z,25.61
2023-03-11T02:43:43.838Z,25.54
2023-03-11T02:45:43.844Z,25.52
2023-03-11T02:47:43.835Z,25.56
2023-03-11T02:49:43.833Z,25.52
2023-03-11T02:51:43.863Z,25.56
2023-03-11T02:53:43.803Z,25.62
2023-03-11T02:55:43.827Z,25.56
2023-03-11T02:57:43.833Z,25.52
2023-03-11T02:59:43.830Z,25.57
2023-03-11T03:01:43.813Z,24.52
2023-03-11T03:03:43.877Z,24.37
2023-03-11T03:05:43.847Z,24.23
2023-03-11T03:07:43.851Z,24.07
2023-03-11T03:09:43.872Z,24.05
2023-03-11T03:11:43.879Z,24.01
2023-03-11T03:13:43.856Z,23.98
2023-03-11T03:15:43.844Z,24.08
2023-03-11T03:17:43.963Z,23.98
2023-03-11T03:19:43.885Z,23.96
2023-03-11T03:21:43.843Z,23.96
2023-03-11T03:23:43.828Z,23.96
2023-03-11T03:25:43.844Z,23.96
2023-03-11T03:27:43.867Z,24.02
2023-03-11T03:29:43.859Z,23.96
2023-03-11T03:31:43.936Z,24.02
2023-03-11T03:33:43.918Z,23.96
2023-03-11T03:35:44.011Z,23.96
2023-03-11T03:37:43.878Z,23.95
2023-03-11T03:39:43.887Z,23.93
2023-03-11T03:41:43.839Z,23.96
2023-03-11T03:43:43.808Z,23.92
2023-03-11T03:45:43.887Z,23.90
2023-03-11T03:47:43.912Z,23.96
2023-03-11T03:49:43.904Z,23.82
2023-03-11T03:51:43.928Z,23.88
2023-03-11T03:53:43.888Z,23.87
2023-03-11T03:55:43.853Z,23.88
2023-03-11T03:57:43.937Z,23.82
2023-03-11T03:59:43.938Z,23.81
2023-03-11T04:01:43.907Z,23.91
2023-03-11T04:03:44.021Z,23.82
2023-03-11T04:05:43.934Z,23.81
2023-03-11T04:07:43.949Z,23.81
2023-03-11T04:09:43.916Z,23.82
2023-03-11T04:11:43.944Z,23.81
2023-03-11T04:13:43.934Z,23.85
2023-03-11T04:15:43.930Z,23.82
2023-03-11T04:17:43.968Z,23.81
2023-03-11T04:19:43.923Z,23.76
2023-03-11T04:21:43.925Z,23.84
2023-03-11T04:23:43.951Z,23.73
2023-03-11T04:25:43.951Z,23.77
2023-03-11T04:27:43.917Z,23.73
2023-03-11T04:29:43.952Z,23.77
2023-03-11T04:31:43.904Z,23.57
2023-03-11T04:33:43.896Z,23.66
2023-03-11T04:35:43.968Z,23.58
2023-03-11T04:37:43.974Z,23.67
2023-03-11T04:39:44.011Z,23.63
2023-03-11T04:41:43.926Z,23.65
2023-03-11T04:43:43.986Z,23.57
2023-03-11T04:45:43.957Z,23.55
2023-03-11T04:47:43.964Z,23.63
2023-03-11T04:49:43.971Z,23.56
2023-03-11T04:51:43.962Z,23.55
2023-03-11T04:53:43.950Z,23.53
2023-03-11T04:55:43.970Z,23.53
2023-03-11T04:57:44.015Z,23.53
2023-03-11T04:59:44.001Z,23.62
2023-03-11T05:01:43.991Z,23.34
2023-03-11T05:03:43.971Z,23.25
2023-03-11T05:05:43.968Z,23.29
2023-03-11T05:07:44.035Z,23.34
2023-03-11T05:09:43.951Z,23.29
2023-03-11T05:11:44.010Z,23.20
2023-03-11T05:13:43.972Z,23.27
2023-03-11T05:15:44.022Z,23.25
2023-03-11T05:17:44.001Z,23.17
2023-03-11T05:19:43.996Z,23.19
2023-03-11T05:21:43.971Z,23.15
2023-03-11T05:23:43.972Z,23.13
2023-03-11T05:25:44.003Z,23.20
2023-03-11T05:27:43.985Z,23.15
2023-03-11T05:29:43.922Z,23.06
2023-03-11T05:31:44.021Z,23.30
2023-03-11T05:33:44.006Z,23.25
2023-03-11T05:35:43.994Z,23.29
2023-03-11T05:37:43.990Z,23.28
2023-03-11T05:39:43.964Z,23.29
2023-03-11T05:41:44.017Z,23.31
2023-03-11T05:43:44.128Z,23.27
2023-03-11T05:45:44.002Z,23.26
2023-03-11T05:47:44.047Z,23.25
2023-03-11T05:49:44.041Z,23.23
2023-03-11T05:51:44.044Z,23.24
2023-03-11T05:53:44.033Z,23.25
2023-03-11T05:55:44.059Z,23.24
2023-03-11T05:57:43.998Z,23.26
2023-03-11T05:59:44.064Z,23.29
2023-03-11T06:01:44.006Z,23.34
2023-03-11T06:03:44.097Z,23.28
2023-03-11T06:05:44.052Z,23.23
2023-03-11T06:07:44.045Z,23.24
2023-03-11T06:09:44.036Z,23.29
2023-03-11T06:11:44.034Z,23.25
2023-03-11T06:13:44.065Z,23.26
2023-03-11T06:15:44.062Z,23.31
2023-03-11T06:17:44.021Z,23.29
2023-03-11T06:19:44.045Z,23.39
2023-03-11T06:21:43.975Z,23.33
2023-03-11T06:23:44.062Z,23.40
2023-03-11T06:25:44.095Z,23.38
2023-03-11T06:27:44.007Z,23.39
2023-03-11T06:29:44.000Z,23.36
2023-03-11T06:31:44.128Z,23.39
2023-03-11T06:33:44.101Z,23.38
2023-03-11T06:35:44.111Z,23.42
2023-03-11T06:37:44.065Z,23.39
2023-03-11T06:39:44.109Z,23.39
2023-03-11T06:41:44.042Z,23.50
2023-03-11T06:43:44.080Z,23.50
2023-03-11T06:45:44.095Z,23.53
2023-03-11T06:47:44.067Z,23.52
2023-03-11T06:49:44.104Z,23.57
2023-03-11T06:51:44.035Z,23.50
2023-03-11T06:53:44.116Z,23.59
2023-03-11T06:55:44.041Z,23.36
2023-03-11T06:57:44.112Z,23.73
2023-03-11T06:59:44.101Z,23.81
2023-03-11T07:01:44.135Z,23.83
2023-03-11T07:03:43.686Z,23.83
2023-03-11T07:05:44.090Z,23.86
2023-03-11T07:07:44.061Z,23.96
2023-03-11T07:09:44.114Z,24.18
2023-03-11T07:11:43.996Z,24.21
2023-03-11T07:13:44.111Z,24.42
2023-03-11T07:15:44.082Z,24.46
2023-03-11T07:17:44.096Z,24.48
2023-03-11T07:19:44.105Z,24.43
2023-03-11T07:21:44.108Z,24.55
2023-03-11T07:23:44.133Z,24.55
2023-03-11T07:25:44.128Z,24.52
2023-03-11T07:27:44.149Z,24.46
2023-03-11T07:29:44.100Z,24.51
2023-03-11T07:31:44.183Z,24.66
2023-03-11T07:33:44.092Z,24.76
2023-03-11T07:35:44.154Z,24.92
2023-03-11T07:37:44.188Z,24.82
2023-03-11T07:39:44.136Z,24.93
2023-03-11T07:41:44.073Z,25.06
2023-03-11T07:43:44.154Z,25.06
2023-03-11T07:45:44.203Z,24.90
2023-03-11T07:47:44.090Z,25.01
2023-03-11T07:49:44.162Z,25.05
2023-03-11T07:51:44.167Z,24.84
2023-03-11T07:53:44.112Z,24.72
2023-03-11T07:55:44.133Z,24.80
2023-03-11T07:57:44.113Z,24.92
2023-03-11T07:59:44.181Z,25.15
2023-03-11T08:01:44.170Z,25.24
2023-03-11T08:03:44.292Z,25.38
2023-03-11T08:05:44.223Z,25.23
2023-03-11T08:07:44.166Z,25.39
2023-03-11T08:09:44.202Z,25.72
2023-03-11T08:11:44.148Z,25.80
2023-03-11T08:13:44.189Z,25.37
2023-03-11T08:15:44.263Z,25.21
2023-03-11T08:17:44.165Z,25.17
2023-03-11T08:19:44.181Z,24.87
2023-03-11T08:21:44.165Z,24.66
2023-03-11T08:23:44.196Z,24.69
2023-03-11T08:25:44.068Z,24.38
2023-03-11T08:27:44.179Z,25.08
2023-03-11T08:29:44.220Z,25.80
2023-03-11T08:31:44.222Z,25.42
2023-03-11T08:33:44.305Z,25.29
2023-03-11T08:35:44.261Z,25.50
2023-03-11T08:37:44.229Z,25.65
2023-03-11T08:39:44.145Z,26.07
2023-03-11T08:41:44.207Z,25.85
2023-03-11T08:43:44.224Z,25.64
2023-03-11T08:45:44.234Z,25.77
2023-03-11T08:47:44.475Z,25.49
2023-03-11T08:49:44.193Z,25.39
2023-03-11T08:51:44.140Z,25.11
2023-03-11T08:53:44.224Z,25.60
2023-03-11T08:55:44.206Z,25.75
2023-03-11T08:57:44.184Z,25.80
2023-03-11T08:59:44.180Z,25.92
2023-03-11T09:01:44.230Z,25.96
2023-03-11T09:03:44.186Z,26.22
2023-03-11T09:05:44.276Z,25.43
2023-03-11T09:07:44.231Z,25.49
2023-03-11T09:09:43.714Z,25.43
2023-03-11T09:11:44.247Z,25.08
2023-03-11T09:13:44.251Z,26.22
2023-03-11T09:15:44.235Z,25.05
2023-03-11T09:17:44.248Z,25.15
2023-03-11T09:19:44.259Z,26.42
2023-03-11T09:21:44.334Z,25.24
2023-03-11T09:23:44.675Z,24.79
2023-03-11T09:25:44.244Z,25.00
2023-03-11T09:27:44.241Z,25.27
2023-03-11T09:29:44.255Z,25.07
2023-03-11T09:31:44.299Z,25.54
2023-03-11T09:33:44.214Z,25.92
2023-03-11T09:35:44.287Z,26.21
2023-03-11T09:37:44.213Z,25.24
2023-03-11T09:39:44.253Z,25.08
2023-03-11T09:41:55.687Z,25.10
2023-03-11T09:43:44.286Z,27.09
2023-03-11T09:45:44.396Z,25.05
2023-03-11T09:47:44.245Z,25.12
2023-03-11T09:49:44.342Z,25.09
2023-03-11T09:51:44.280Z,25.10
2023-03-11T09:53:44.274Z,25.13
2023-03-11T09:55:44.274Z,25.01
2023-03-11T09:57:44.255Z,25.09
2023-03-11T09:59:44.257Z,25.09
2023-03-11T10:01:44.336Z,25.10
2023-03-11T10:03:44.377Z,25.26
2023-03-11T10:05:44.284Z,25.12
2023-03-11T10:07:44.379Z,26.98
2023-03-11T10:09:44.340Z,25.15
2023-03-11T10:11:44.240Z,26.98
2023-03-11T10:13:44.328Z,25.14
2023-03-11T10:15:44.319Z,25.05
2023-03-11T10:17:44.209Z,25.16
2023-03-11T10:19:44.343Z,25.10
2023-03-11T10:21:44.437Z,25.11
2023-03-11T10:23:44.234Z,25.07
2023-03-11T10:25:44.237Z,25.05
2023-03-11T10:27:44.304Z,25.19
2023-03-11T10:29:44.322Z,25.28
2023-03-11T10:31:44.364Z,25.25
2023-03-11T10:33:46.605Z,25.21
2023-03-11T10:35:44.289Z,25.07
2023-03-11T10:37:49.784Z,25.97
2023-03-11T10:39:44.368Z,25.58
2023-03-11T10:41:45.329Z,25.43
2023-03-11T10:43:44.315Z,25.14
2023-03-11T10:45:44.373Z,25.11
2023-03-11T10:47:44.313Z,25.11
2023-03-11T10:49:44.307Z,25.18
2023-03-11T10:51:44.341Z,25.25
2023-03-11T10:53:44.346Z,25.23
2023-03-11T10:55:44.328Z,25.24
2023-03-11T10:57:44.349Z,25.53
2023-03-11T10:59:44.348Z,25.42
2023-03-11T11:01:44.356Z,26.94
2023-03-11T11:03:44.363Z,26.79
2023-03-11T11:05:44.414Z,25.12
2023-03-11T11:07:44.341Z,26.87
2023-03-11T11:09:44.364Z,26.07
2023-03-11T11:11:44.337Z,26.66
2023-03-11T11:13:44.343Z,25.17
2023-03-11T11:15:44.328Z,25.10
2023-03-11T11:17:44.358Z,27.07
2023-03-11T11:19:44.331Z,25.09
2023-03-11T11:21:44.393Z,25.16
2023-03-11T11:23:44.413Z,24.85
2023-03-11T11:25:45.514Z,25.18
2023-03-11T11:27:44.476Z,25.13
2023-03-11T11:29:44.386Z,25.15
2023-03-11T11:31:44.488Z,25.52
2023-03-11T11:33:44.350Z,25.42
2023-03-11T11:35:44.382Z,25.23
2023-03-11T11:37:44.401Z,25.24
2023-03-11T11:39:44.329Z,25.77
2023-03-11T11:41:44.376Z,24.98
2023-03-11T11:43:44.392Z,25.61
2023-03-11T11:45:44.330Z,25.52
2023-03-11T11:47:44.331Z,25.52
2023-03-11T11:49:44.431Z,25.52
2023-03-11T11:51:43.891Z,25.42
2023-03-11T11:53:44.422Z,25.45
2023-03-11T11:55:44.361Z,25.52
2023-03-11T11:57:44.375Z,25.34
2023-03-11T11:59:44.444Z,27.23
2023-03-11T12:01:44.376Z,25.43
2023-03-11T12:03:44.495Z,25.37
2023-03-11T12:05:44.434Z,25.37
2023-03-11T12:07:44.376Z,25.44
2023-03-11T12:09:44.382Z,25.36
2023-03-11T12:11:44.425Z,25.32
2023-03-11T12:13:44.457Z,25.40
2023-03-11T12:15:44.458Z,25.35
2023-03-11T12:17:44.396Z,25.31
2023-03-11T12:19:44.401Z,25.29
2023-03-11T12:21:44.448Z,25.23
2023-03-11T12:23:44.450Z,25.28
2023-03-11T12:25:44.360Z,25.52
2023-03-11T12:27:44.436Z,25.42
2023-03-11T12:29:44.432Z,25.43
2023-03-11T12:31:44.405Z,25.45
2023-03-11T12:33:44.444Z,25.40
2023-03-11T12:35:44.421Z,25.41
2023-03-11T12:37:44.410Z,24.62
2023-03-11T12:39:44.384Z,24.46
2023-03-11T12:41:44.384Z,24.38
2023-03-11T12:43:44.456Z,25.09
2023-03-11T12:45:44.469Z,25.38
2023-03-11T12:47:44.390Z,25.49
2023-03-11T12:49:44.461Z,25.28
2023-03-11T12:51:44.478Z,25.37
2023-03-11T12:53:44.478Z,25.26
2023-03-11T12:55:44.402Z,25.31
2023-03-11T12:57:44.453Z,25.40
2023-03-11T12:59:44.470Z,25.06
2023-03-11T13:01:44.513Z,25.01
2023-03-11T13:03:46.005Z,25.06
2023-03-11T13:05:44.479Z,25.15
2023-03-11T13:07:44.425Z,25.03
2023-03-11T13:09:44.464Z,24.99
2023-03-11T13:11:44.493Z,25.09
2023-03-11T13:13:44.461Z,25.10
2023-03-11T13:15:44.458Z,25.08
2023-03-11T13:17:44.514Z,26.93
2023-03-11T13:19:44.456Z,25.00
2023-03-11T13:21:44.431Z,26.08
2023-03-11T13:23:44.491Z,25.32
2023-03-11T13:25:44.561Z,25.26
2023-03-11T13:27:44.513Z,25.23
2023-03-11T13:29:44.553Z,25.24
2023-03-11T13:31:44.539Z,25.51
2023-03-11T13:33:45.393Z,25.14
2023-03-11T13:35:44.591Z,25.14
2023-03-11T13:37:44.537Z,25.01
2023-03-11T13:39:44.584Z,26.92
2023-03-11T13:41:44.521Z,26.85
2023-03-11T13:43:44.497Z,25.80
2023-03-11T13:45:44.557Z,25.04
2023-03-11T13:47:44.493Z,26.77
2023-03-11T13:49:44.604Z,24.73
2023-03-11T13:51:44.566Z,24.71
2023-03-11T13:53:44.590Z,24.76
2023-03-11T13:55:44.530Z,24.66
2023-03-11T13:57:44.538Z,24.66
2023-03-11T13:59:44.564Z,24.73
2023-03-11T14:01:44.548Z,24.96
2023-03-11T14:03:44.629Z,25.05
2023-03-11T14:05:44.612Z,25.23
2023-03-11T14:07:44.510Z,25.24
2023-03-11T14:09:44.578Z,25.08
2023-03-11T14:11:44.551Z,25.05
2023-03-11T14:13:44.550Z,25.09
2023-03-11T14:15:44.585Z,25.05
2023-03-11T14:17:46.019Z,25.24
2023-03-11T14:19:44.583Z,24.83
2023-03-11T14:21:44.587Z,25.18
2023-03-11T14:23:44.557Z,24.20
2023-03-11T14:25:44.551Z,24.05
2023-03-11T14:27:44.568Z,24.58
2023-03-11T14:29:44.555Z,25.21
2023-03-11T14:31:44.522Z,25.13
2023-03-11T14:33:44.467Z,25.12
2023-03-11T14:35:44.643Z,25.09
2023-03-11T14:37:44.571Z,25.08
2023-03-11T14:39:45.371Z,24.99
2023-03-11T14:41:44.575Z,25.26
2023-03-11T14:43:44.606Z,25.12
2023-03-11T14:45:44.795Z,25.05
2023-03-11T14:47:44.586Z,24.90
2023-03-11T14:49:44.836Z,25.03
2023-03-11T14:51:44.576Z,25.01
2023-03-11T14:53:44.623Z,24.90
2023-03-11T14:55:44.599Z,24.95
2023-03-11T14:57:44.585Z,24.85
2023-03-11T14:59:44.610Z,24.94
2023-03-11T15:01:44.606Z,24.95
2023-03-11T15:03:44.674Z,25.05
2023-03-11T15:05:44.646Z,24.87
2023-03-11T15:07:44.600Z,24.79
2023-03-11T15:09:44.644Z,24.80
2023-03-11T15:11:44.579Z,24.75
2023-03-11T15:13:44.618Z,24.66
2023-03-11T15:15:44.628Z,24.66
2023-03-11T15:17:44.646Z,24.66
2023-03-11T15:19:44.588Z,24.68
2023-03-11T15:21:44.629Z,24.89
2023-03-11T15:23:44.617Z,24.61
2023-03-11T15:25:44.613Z,24.53
2023-03-11T15:27:44.622Z,24.40
2023-03-11T15:29:44.576Z,24.62
2023-03-11T15:31:44.637Z,25.12
2023-03-11T15:33:44.632Z,25.24
2023-03-11T15:35:44.683Z,25.09
2023-03-11T15:37:44.634Z,24.82
2023-03-11T15:39:44.580Z,24.82
2023-03-11T15:41:44.640Z,24.96
2023-03-11T15:43:44.660Z,25.01
2023-03-11T15:45:44.566Z,25.08
2023-03-11T15:47:44.654Z,25.08
2023-03-11T15:49:44.623Z,25.12
2023-03-11T15:51:44.656Z,25.07
2023-03-11T15:53:44.633Z,25.07
2023-03-11T15:55:44.668Z,25.21
2023-03-11T15:57:44.619Z,25.17
2023-03-11T15:59:44.644Z,25.11
2023-03-11T16:01:44.618Z,24.40
2023-03-11T16:03:44.721Z,24.36
2023-03-11T16:05:44.671Z,24.26
2023-03-11T16:07:44.664Z,24.29
2023-03-11T16:09:44.631Z,24.36
2023-03-11T16:11:44.638Z,24.37
2023-03-11T16:13:44.647Z,24.37
2023-03-11T16:15:44.753Z,24.31
2023-03-11T16:17:49.652Z,24.25
2023-03-11T16:19:44.559Z,24.25
2023-03-11T16:21:44.687Z,24.02
2023-03-11T16:23:51.695Z,24.28
2023-03-11T16:25:44.695Z,24.30
2023-03-11T16:27:44.718Z,24.22
2023-03-11T16:29:44.667Z,24.10
2023-03-11T16:31:44.691Z,24.10
2023-03-11T16:33:44.694Z,24.05
2023-03-11T16:35:44.699Z,24.00
2023-03-11T16:37:44.689Z,23.96
2023-03-11T16:39:44.709Z,23.94
2023-03-11T16:41:44.688Z,23.91
2023-03-11T16:43:44.678Z,23.93
2023-03-11T16:45:44.681Z,23.88
2023-03-11T16:47:44.868Z,23.88
2023-03-11T16:49:44.698Z,23.81
2023-03-11T16:51:44.691Z,23.93
2023-03-11T16:53:44.758Z,23.91
2023-03-11T16:55:44.645Z,23.90
2023-03-11T16:57:44.680Z,23.81
2023-03-11T16:59:44.717Z,23.81
2023-03-11T17:01:44.673Z,23.85
2023-03-11T17:03:44.616Z,23.81
2023-03-11T17:05:45.768Z,23.80
2023-03-11T17:07:44.667Z,23.76
2023-03-11T17:09:44.725Z,23.78
2023-03-11T17:11:44.815Z,23.67
2023-03-11T17:13:44.738Z,23.70
2023-03-11T17:15:44.753Z,23.69
2023-03-11T17:17:44.641Z,23.73
2023-03-11T17:19:44.711Z,23.72
2023-03-11T17:21:44.753Z,23.62
2023-03-11T17:23:44.760Z,23.73
2023-03-11T17:25:44.683Z,23.68
2023-03-11T17:27:44.780Z,23.40
2023-03-11T17:29:44.699Z,23.65
2023-03-11T17:31:44.852Z,23.63
2023-03-11T17:33:44.731Z,23.33
2023-03-11T17:35:44.799Z,23.26
2023-03-11T17:37:44.830Z,23.06
2023-03-11T17:39:44.762Z,23.25
2023-03-11T17:41:44.745Z,23.09
2023-03-11T17:43:44.776Z,23.39
2023-03-11T17:45:44.753Z,23.44
2023-03-11T17:47:44.789Z,23.48
2023-03-11T17:49:44.751Z,23.44
2023-03-11T17:51:44.796Z,23.43
2023-03-11T17:53:46.003Z,23.49
2023-03-11T17:55:44.731Z,23.53
2023-03-11T17:57:45.972Z,23.49
2023-03-11T17:59:44.782Z,23.43
2023-03-11T18:01:44.838Z,23.51
2023-03-11T18:03:44.892Z,23.49
2023-03-11T18:05:44.722Z,23.49
2023-03-11T18:07:44.726Z,23.41
2023-03-11T18:09:44.779Z,23.50
2023-03-11T18:11:44.784Z,23.50
2023-03-11T18:13:44.770Z,23.53
2023-03-11T18:15:44.794Z,23.48
2023-03-11T18:17:44.805Z,23.47
2023-03-11T18:19:44.792Z,23.55
2023-03-11T18:21:44.813Z,23.49
2023-03-11T18:23:44.815Z,23.43
2023-03-11T18:25:44.795Z,23.49
2023-03-11T18:27:44.828Z,23.49
2023-03-11T18:29:44.825Z,23.44
2023-03-11T18:31:44.906Z,23.43
2023-03-11T18:33:44.823Z,23.45
2023-03-11T18:35:44.769Z,23.42
2023-03-11T18:37:44.753Z,23.53
2023-03-11T18:39:44.803Z,23.49
2023-03-11T18:41:44.849Z,23.45
2023-03-11T18:43:44.803Z,23.50
2023-03-11T18:45:44.875Z,23.42
2023-03-11T18:47:44.799Z,23.42
2023-03-11T18:49:44.838Z,23.45
2023-03-11T18:51:44.822Z,23.39
2023-03-11T18:53:44.810Z,23.44
2023-03-11T18:55:44.826Z,23.47
2023-03-11T18:57:44.829Z,23.52
2023-03-11T18:59:44.957Z,23.50
2023-03-11T19:01:44.808Z,26.32
2023-03-11T19:03:44.835Z,26.93
2023-03-11T19:05:44.787Z,27.06
2023-03-11T19:07:44.860Z,27.06
2023-03-11T19:09:44.864Z,27.10
2023-03-11T19:11:44.838Z,27.10
2023-03-11T19:13:47.483Z,27.18
2023-03-11T19:15:44.875Z,27.12
2023-03-11T19:17:51.721Z,27.14
2023-03-11T19:19:44.830Z,27.16
2023-03-11T19:21:44.880Z,27.23
2023-03-11T19:23:44.860Z,27.20
2023-03-11T19:26:00.722Z,27.19
2023-03-11T19:27:44.876Z,25.65
2023-03-11T19:29:44.839Z,25.52
2023-03-11T19:31:44.918Z,25.52
2023-03-11T19:33:44.875Z,25.50
2023-03-11T19:35:44.894Z,25.48
2023-03-11T19:37:44.890Z,25.49
2023-03-11T19:39:44.900Z,25.49
2023-03-11T19:41:44.906Z,25.52
2023-03-11T19:43:44.872Z,25.47
2023-03-11T19:45:44.876Z,25.46
2023-03-11T19:47:44.913Z,25.50
2023-03-11T19:49:44.907Z,25.52
2023-03-11T19:51:50.071Z,25.60
2023-03-11T19:53:44.993Z,25.52
2023-03-11T19:55:44.875Z,25.58
2023-03-11T19:57:44.980Z,25.52
2023-03-11T19:59:44.980Z,25.53
2023-03-11T20:01:44.960Z,25.53
2023-03-11T20:03:44.940Z,25.52
2023-03-11T20:05:45.044Z,25.52
2023-03-11T20:07:45.020Z,25.52
2023-03-11T20:09:45.031Z,25.51
2023-03-11T20:11:44.994Z,25.56
2023-03-11T20:13:44.840Z,25.54
2023-03-11T20:15:45.050Z,25.54
2023-03-11T20:17:44.909Z,25.61
2023-03-11T20:19:45.034Z,25.65
2023-03-11T20:21:45.910Z,25.61
2023-03-11T20:23:44.973Z,25.58
2023-03-11T20:25:44.942Z,25.56
2023-03-11T20:27:44.936Z,25.57
2023-03-11T20:29:44.943Z,25.44
2023-03-11T20:31:45.116Z,25.56
2023-03-11T20:33:44.886Z,25.52
2023-03-11T20:35:44.971Z,25.56
2023-03-11T20:37:45.025Z,25.53
2023-03-11T20:39:44.998Z,25.53
2023-03-11T20:41:44.996Z,25.53
2023-03-11T20:43:45.035Z,25.61
2023-03-11T20:45:44.957Z,25.58
2023-03-11T20:47:44.996Z,25.63
2023-03-11T20:49:45.033Z,25.56
2023-03-11T20:51:44.937Z,25.56
2023-03-11T20:53:44.915Z,25.53
2023-03-11T20:55:45.054Z,25.54
2023-03-11T20:57:44.929Z,25.51
2023-03-11T20:59:44.972Z,25.60
2023-03-11T21:01:45.100Z,25.54
2023-03-11T21:03:45.164Z,25.54
2023-03-11T21:05:45.074Z,25.52
2023-03-11T21:07:45.109Z,25.52
2023-03-11T21:09:45.086Z,25.57
2023-03-11T21:11:44.983Z,25.52
2023-03-11T21:13:45.125Z,25.49
2023-03-11T21:15:45.132Z,25.52
2023-03-11T21:17:44.945Z,25.60
2023-03-11T21:19:45.083Z,25.52
2023-03-11T21:21:45.035Z,25.65
2023-03-11T21:23:45.163Z,25.72
2023-03-11T21:25:44.971Z,25.65
2023-03-11T21:27:45.053Z,25.80
2023-03-11T21:29:45.290Z,25.80
2023-03-11T21:31:45.271Z,25.72
2023-03-11T21:33:45.140Z,25.72
2023-03-11T21:35:45.054Z,25.75
2023-03-11T21:37:45.156Z,25.61
2023-03-11T21:39:45.133Z,25.75
2023-03-11T21:41:45.189Z,25.65
2023-03-11T21:43:45.230Z,25.60
2023-03-11T21:45:45.286Z,25.60
2023-03-11T21:47:45.249Z,25.56
2023-03-11T21:49:45.253Z,25.65
2023-03-11T21:51:45.124Z,25.52
2023-03-11T21:53:45.450Z,25.65
2023-03-11T21:55:45.205Z,25.71
2023-03-11T21:57:45.158Z,25.75
2023-03-11T21:59:45.180Z,25.65
2023-03-11T22:01:45.116Z,25.75
2023-03-11T22:03:45.210Z,25.60
2023-03-11T22:05:45.166Z,25.63
2023-03-11T22:07:45.138Z,25.77
2023-03-11T22:09:45.182Z,25.63
2023-03-11T22:11:45.073Z,25.65
2023-03-11T22:13:45.227Z,25.61
2023-03-11T22:15:45.121Z,25.71
2023-03-11T22:17:45.190Z,25.65
2023-03-11T22:19:45.079Z,25.63
2023-03-11T22:21:45.239Z,25.63
2023-03-11T22:23:45.197Z,25.72
2023-03-11T22:25:45.081Z,25.64
2023-03-11T22:27:45.176Z,25.65
2023-03-11T22:29:45.088Z,25.65
2023-03-11T22:31:45.065Z,25.62
2023-03-11T22:33:45.133Z,25.65
2023-03-11T22:35:45.032Z,25.60
2023-03-11T22:37:45.102Z,25.60
2023-03-11T22:39:45.073Z,25.71
2023-03-11T22:41:45.057Z,25.58
2023-03-11T22:43:45.029Z,25.52
2023-03-11T22:45:45.120Z,25.54
2023-03-11T22:47:45.052Z,25.61
2023-03-11T22:49:45.005Z,25.52
2023-03-11T22:51:45.009Z,25.51
2023-03-11T22:53:45.108Z,25.51
2023-03-11T22:55:45.087Z,25.51
2023-03-11T22:57:45.028Z,25.57
2023-03-11T22:59:45.123Z,25.52
2023-03-11T23:01:45.054Z,25.52
2023-03-11T23:03:45.028Z,25.52
2023-03-11T23:05:45.114Z,25.53
2023-03-11T23:07:45.086Z,25.53
2023-03-11T23:09:45.048Z,25.52
2023-03-11T23:11:45.061Z,25.52
2023-03-11T23:13:45.108Z,25.50
2023-03-11T23:15:45.058Z,25.53
2023-03-11T23:17:45.092Z,25.52
2023-03-11T23:19:45.110Z,25.52
2023-03-11T23:21:45.160Z,25.52
2023-03-11T23:23:45.104Z,25.54
2023-03-11T23:25:45.115Z,25.60
2023-03-11T23:27:45.101Z,25.51
2023-03-11T23:29:45.157Z,25.60
2023-03-11T23:31:45.089Z,25.52
2023-03-11T23:33:45.136Z,25.54
2023-03-11T23:35:45.106Z,25.52
2023-03-11T23:37:45.131Z,25.52
2023-03-11T23:39:45.130Z,25.52
2023-03-11T23:41:45.128Z,25.52
2023-03-11T23:43:45.156Z,25.52
2023-03-11T23:45:45.103Z,25.51
2023-03-11T23:47:45.102Z,25.65
2023-03-11T23:49:45.108Z,25.52
2023-03-11T23:51:45.147Z,25.52
2023-03-11T23:53:45.113Z,25.60
2023-03-11T23:55:45.177Z,25.56
2023-03-11T23:57:45.139Z,25.64
2023-03-11T23:59:44.665Z,25.57
